Airfield :
LOGIN :

Register | Disclaimer

   EN    FR    IT 

 










Legend :    VFR   Marginal VFR   IFR   Intensive IFR   Very Intensive IFR
Visi :
Ceiling :
>= 8 km
>= 3000ft
5 to 8 km
1000 to 3000 ft
1500m to 5 km
500 to 1000 ft
800 to 1500m
200 to 500 ft
< 800m
< 200 ft
Symbols :   Thunderstorms  Fog  Heavy snow  Heavy precipitations  Wind > 20 kt
SIGMETs :     Misc.  Thunderstorms  Icing  Turbulence  Mountain Waves  Volcanic Ashes






- Airport Elevation : 352 ft
- IATA code : ARW


LRAR - Arad International

CURRENT METAR :
  • 261030Z 17006KT 130V200 9999 SCT013 SCT044 FEW055CB 13/06 Q0996

EXPIRED METARs :
  • 261000Z VRB01KT 9999 SCT010 SCT040 FEW050CB 12/05 Q0997
  • 260930Z 30015KT 9999 -SHRA SCT044 FEW050CB 11/05 Q0998
  • 260900Z 18006KT 9999 BKN048 11/05 Q0997
  • 260830Z 17007KT 9999 BKN048 11/04 Q0997
  • 260800Z 31005KT 210V350 9999 SCT040 11/04 Q0998

TAF TAF LRAR
Valid from the 26 at 09:00 until the 26 at 18:00 UTC


260800Z 2609/2618 21014KT 9999 SCT040
PROB30
TEMPO 2609/2612 24016G26KT
TEMPO 2611/2616 5000 SHRA SCT015 SCT030CB BKN040
BECMG 2612/2614 30014KT
PROB40
TEMPO 2613/2616 3000 TSRA
BECMG 2616/2618 5000 -RA BR BKN010 BKN030



MET'MAP, your aeronautical weather chart ! - Copyright ORBIFLY December 2007 - Disclaimer

ORBIFLY MET'MAP TEAM :

Programming & Development : Alexandra Zaïnal
Concept & original design : Baudouin d'Aumeries
Assistance for programming : Marc-Olivier Méhu
Technical & hardware support : Manuel Goepfert

Contact : metmap@orbifly.com




SOURCES & CREDITS :

   NOAA